createdAt,value
2018-04-16T10:51:08.703Z,32.80
2018-04-16T10:53:36.969Z,33.20
2018-04-16T11:04:37.777Z,32.30
2018-04-16T11:07:06.021Z,30.60
2018-04-16T11:09:33.508Z,30.60
2018-04-16T11:12:01.737Z,28.80
2018-04-16T11:14:29.229Z,28.80
2018-04-16T11:16:57.474Z,27.80
2018-04-16T11:19:24.960Z,27.80
2018-04-16T11:21:53.243Z,26.80
2018-04-16T11:24:21.484Z,26.70
2018-04-16T11:26:48.944Z,26.60
2018-04-16T11:29:17.235Z,26.00
2018-04-16T11:31:44.706Z,26.00
2018-04-16T11:34:12.932Z,25.50
2018-04-16T11:36:40.417Z,25.50
2018-04-16T11:39:07.915Z,25.50
2018-04-16T11:41:38.427Z,25.40
2018-04-16T11:44:05.917Z,25.20
2018-04-16T11:46:33.410Z,24.80
2018-04-16T11:49:00.905Z,24.60
2018-04-16T11:51:28.392Z,24.40
2018-04-16T11:53:55.959Z,24.20
2018-04-16T11:56:23.497Z,24.20
2018-04-16T11:58:50.962Z,24.30
2018-04-16T12:01:18.451Z,24.40
2018-04-16T12:03:45.913Z,24.50
2018-04-16T12:06:14.517Z,24.40
2018-04-16T12:08:42.792Z,24.40
2018-04-16T12:11:11.035Z,24.40
2018-04-16T12:13:38.513Z,24.40
2018-04-16T12:16:06.737Z,24.30
2018-04-16T12:18:34.236Z,24.20
2018-04-16T12:21:01.705Z,24.20
2018-04-16T12:23:29.933Z,24.10
2018-04-16T12:25:57.414Z,24.10
2018-04-16T12:28:24.889Z,24.10
2018-04-16T12:30:53.129Z,24.30
2018-04-16T12:33:20.636Z,24.30
2018-04-16T12:35:48.140Z,24.30
2018-04-16T12:38:15.610Z,24.40
2018-04-16T12:40:43.115Z,24.40
2018-04-16T12:43:10.632Z,24.50
2018-04-16T12:45:38.097Z,24.40
2018-04-16T12:48:05.624Z,24.30
2018-04-16T12:50:33.083Z,24.20
2018-04-16T12:53:00.593Z,24.10
2018-04-16T12:55:28.061Z,23.90
2018-04-16T12:57:55.590Z,23.90
2018-04-16T13:00:23.066Z,23.80
2018-04-16T13:02:50.560Z,23.70
2018-04-16T13:05:18.031Z,23.60
2018-04-16T13:07:46.288Z,23.90
2018-04-16T13:10:13.750Z,23.90
2018-04-16T13:12:41.220Z,23.90
2018-04-16T13:15:09.835Z,24.20
2018-04-16T13:17:37.321Z,24.10
2018-04-16T13:20:04.826Z,24.20
2018-04-16T13:22:32.284Z,24.30
2018-04-16T13:25:00.547Z,24.00
2018-04-16T13:27:28.014Z,24.00
2018-04-16T13:29:56.392Z,24.00
2018-04-16T13:32:24.632Z,24.00
2018-04-16T13:34:52.234Z,24.00
2018-04-16T13:37:20.461Z,24.00
2018-04-16T13:39:47.962Z,23.90
2018-04-16T13:42:16.244Z,23.90
2018-04-16T13:44:43.719Z,23.80
2018-04-16T13:47:11.233Z,23.40
2018-04-16T13:49:39.482Z,23.10
2018-04-16T13:52:06.979Z,23.00
2018-04-16T13:54:35.234Z,22.90
2018-04-16T13:57:03.510Z,22.60
2018-04-16T13:59:30.970Z,22.50
2018-04-16T14:01:59.231Z,22.40
2018-04-16T14:04:26.721Z,22.40
2018-04-16T14:06:55.790Z,22.60
2018-04-16T14:09:23.249Z,22.60
2018-04-16T14:11:51.489Z,22.70
2018-04-16T14:14:18.963Z,22.60
2018-04-16T14:16:46.445Z,22.80
2018-04-16T14:19:14.690Z,23.20
2018-04-16T14:21:42.243Z,23.20
2018-04-16T14:24:09.745Z,23.20
2018-04-16T14:26:37.231Z,23.30
2018-04-16T14:29:04.708Z,23.60
2018-04-16T14:31:32.293Z,23.70
2018-04-16T14:33:59.881Z,23.70
2018-04-16T14:36:27.388Z,23.60
2018-04-16T14:38:54.948Z,23.50
2018-04-16T14:41:22.416Z,23.50
2018-04-16T14:43:49.925Z,23.60
2018-04-16T14:46:17.508Z,23.30
2018-04-16T14:48:45.037Z,23.20
2018-04-16T14:51:12.661Z,23.10
2018-04-16T14:53:40.262Z,22.80
2018-04-16T14:56:07.749Z,22.90
2018-04-16T14:58:35.280Z,22.70
2018-04-16T15:01:02.842Z,22.70
2018-04-16T15:03:30.378Z,22.70
2018-04-16T15:05:58.658Z,22.50
2018-04-16T15:08:26.175Z,22.50
2018-04-16T15:10:55.014Z,22.30
2018-04-16T15:13:22.581Z,22.40
2018-04-16T15:15:50.291Z,22.30
2018-04-16T15:18:18.571Z,22.30
2018-04-16T15:20:46.860Z,22.30
2018-04-16T15:23:14.419Z,22.30
2018-04-16T15:25:41.901Z,22.30
2018-04-16T15:28:09.524Z,22.30
2018-04-16T15:30:37.836Z,22.30
2018-04-16T15:33:05.397Z,22.20
2018-04-16T15:35:32.879Z,22.10
2018-04-16T15:38:00.375Z,22.20
2018-04-16T15:40:28.633Z,22.20
2018-04-16T15:42:56.952Z,22.00
2018-04-16T15:45:25.708Z,22.00
2018-04-16T15:47:54.491Z,21.90
2018-04-16T15:50:23.952Z,21.90
2018-04-16T15:52:51.605Z,21.90
2018-04-16T15:55:19.181Z,22.00
2018-04-16T15:57:47.471Z,21.90
2018-04-16T16:00:14.960Z,21.90
2018-04-16T16:02:42.458Z,21.90
2018-04-16T16:05:09.984Z,21.90
2018-04-16T16:07:37.591Z,21.70
2018-04-16T16:10:05.220Z,21.60
2018-04-16T16:12:32.846Z,21.30
2018-04-16T16:15:00.419Z,21.10
2018-04-16T16:17:27.973Z,20.90
2018-04-16T16:19:56.430Z,20.80
2018-04-16T16:22:24.739Z,20.70
2018-04-16T16:24:52.207Z,20.60
2018-04-16T16:27:19.774Z,20.60
2018-04-16T16:29:47.292Z,20.60
2018-04-16T16:32:14.839Z,20.60
2018-04-16T16:34:43.082Z,20.60
2018-04-16T16:37:10.601Z,20.60
2018-04-16T16:39:38.133Z,20.60
2018-04-16T16:42:05.687Z,20.60
2018-04-16T16:44:33.970Z,20.70
2018-04-16T16:47:01.468Z,20.60
2018-04-16T16:49:29.001Z,20.70
2018-04-16T16:51:57.238Z,20.60
2018-04-16T16:54:25.574Z,20.40
2018-04-16T16:56:53.118Z,20.40
2018-04-16T16:59:20.595Z,20.30
2018-04-16T17:01:48.075Z,20.20
2018-04-16T17:04:16.443Z,20.00
2018-04-16T17:06:44.030Z,20.00
2018-04-16T17:09:12.296Z,19.90
2018-04-16T17:11:40.532Z,19.80
2018-04-16T17:14:08.070Z,19.80
2018-04-16T17:16:35.673Z,19.80
2018-04-16T17:19:03.178Z,19.70
2018-04-16T17:21:30.683Z,19.70
2018-04-16T17:23:58.947Z,19.60
2018-04-16T17:26:27.274Z,19.50
2018-04-16T17:28:57.298Z,19.40
2018-04-16T17:31:24.880Z,19.40
2018-04-16T17:33:52.537Z,19.30
2018-04-16T17:36:20.042Z,19.20
2018-04-16T17:38:48.453Z,19.00
2018-04-16T17:41:15.937Z,19.00
2018-04-16T17:43:43.615Z,18.90
2018-04-16T17:46:11.489Z,18.90
2018-04-16T17:48:38.973Z,18.90
2018-04-16T17:51:06.453Z,18.80
2018-04-16T17:53:34.104Z,18.70
2018-04-16T17:56:01.577Z,18.70
2018-04-16T17:58:29.080Z,18.60
2018-04-16T18:00:57.376Z,18.30
2018-04-16T18:03:24.905Z,18.30
2018-04-16T18:05:53.299Z,18.20
2018-04-16T18:08:21.600Z,18.00
2018-04-16T18:10:49.264Z,18.00
2018-04-16T18:13:16.845Z,17.80
2018-04-16T18:15:44.550Z,17.70
2018-04-16T18:18:12.113Z,17.60
2018-04-16T18:20:40.412Z,17.40
2018-04-16T18:23:07.941Z,17.40
2018-04-16T18:25:36.222Z,17.10
2018-04-16T18:28:03.874Z,17.10
2018-04-16T18:30:32.181Z,16.90
2018-04-16T18:32:59.744Z,16.90
2018-04-16T18:35:27.246Z,16.80
2018-04-16T18:37:55.074Z,16.70
2018-04-16T18:40:22.581Z,16.60
2018-04-16T18:42:50.886Z,16.40
2018-04-16T18:45:18.710Z,16.40
2018-04-16T18:47:46.223Z,16.30
2018-04-16T18:50:13.837Z,16.30
2018-04-16T18:52:41.374Z,16.10
2018-04-16T18:55:08.869Z,16.10
2018-04-16T18:57:36.398Z,16.00
2018-04-16T19:00:04.716Z,15.70
2018-04-16T19:02:32.220Z,15.80
2018-04-16T19:04:59.769Z,15.70
2018-04-16T19:07:27.392Z,15.60
2018-04-16T19:09:54.894Z,15.50
2018-04-16T19:12:22.556Z,15.40
2018-04-16T19:14:50.268Z,15.30
2018-04-16T19:17:17.922Z,15.20
2018-04-16T19:19:45.445Z,15.20
2018-04-16T19:22:12.940Z,15.10
2018-04-16T19:24:40.442Z,15.00
2018-04-16T19:27:13.541Z,14.90
2018-04-16T19:29:42.578Z,14.70
2018-04-16T19:32:10.074Z,14.70
2018-04-16T19:34:43.147Z,14.70
2018-04-16T19:37:10.653Z,14.50
2018-04-16T19:39:39.058Z,14.40
2018-04-16T19:42:12.165Z,14.40
2018-04-16T19:44:39.710Z,14.40
2018-04-16T19:47:07.389Z,14.30
2018-04-16T19:49:40.692Z,14.30
2018-04-16T19:52:08.605Z,14.30
2018-04-16T19:54:36.197Z,14.20
2018-04-16T19:57:09.457Z,14.10
2018-04-16T19:59:37.947Z,14.00
2018-04-16T20:02:12.051Z,13.90
2018-04-16T20:04:40.302Z,13.80
2018-04-16T20:07:07.809Z,13.80
2018-04-16T20:09:35.326Z,13.70
2018-04-16T20:12:03.795Z,13.60
2018-04-16T20:14:32.587Z,13.60
2018-04-16T20:17:00.090Z,13.60
2018-04-16T20:19:27.740Z,13.50
2018-04-16T20:21:55.262Z,13.40
2018-04-16T20:24:23.714Z,13.30
2018-04-16T20:26:51.323Z,13.30
2018-04-16T20:29:19.004Z,13.30
2018-04-16T20:31:46.641Z,13.20
2018-04-16T20:34:14.129Z,13.20
2018-04-16T20:36:41.740Z,13.10
2018-04-16T20:39:10.103Z,13.00
2018-04-16T20:41:37.680Z,13.00
2018-04-16T20:44:05.926Z,12.90
2018-04-16T20:46:33.400Z,12.90
2018-04-16T20:49:03.149Z,12.80
2018-04-16T20:51:30.754Z,12.80
2018-04-16T20:53:58.365Z,12.70
2018-04-16T20:56:25.857Z,12.70
2018-04-16T20:58:53.509Z,12.60
2018-04-16T21:01:21.048Z,12.50
2018-04-16T21:03:48.547Z,12.40
2018-04-16T21:06:16.915Z,12.30
2018-04-16T21:08:44.400Z,12.30
2018-04-16T21:11:12.758Z,12.20
2018-04-16T21:13:40.321Z,12.20
2018-04-16T21:16:07.818Z,12.20
2018-04-16T21:18:35.410Z,12.10
2018-04-16T21:21:03.051Z,12.10
2018-04-16T21:23:30.620Z,12.10
2018-04-16T21:25:58.197Z,12.00
2018-04-16T21:28:25.740Z,12.00
2018-04-16T21:30:53.308Z,11.90
2018-04-16T21:33:20.879Z,11.90
2018-04-16T21:35:48.378Z,11.80
2018-04-16T21:38:15.964Z,11.70
2018-04-16T21:40:43.473Z,11.70
2018-04-16T21:43:11.879Z,11.70
2018-04-16T21:45:39.417Z,11.60
2018-04-16T21:48:06.887Z,11.60
2018-04-16T21:50:34.391Z,11.60
2018-04-16T21:53:01.991Z,11.60
2018-04-16T21:55:30.263Z,11.50
2018-04-16T21:57:58.570Z,11.50
2018-04-16T22:00:26.078Z,11.40
2018-04-16T22:02:54.350Z,11.30
2018-04-16T22:05:21.853Z,11.30
2018-04-16T22:07:49.322Z,11.30
2018-04-16T22:10:16.803Z,11.20
2018-04-16T22:12:44.287Z,11.20
2018-04-16T22:15:11.781Z,11.10
2018-04-16T22:17:39.267Z,11.00
2018-04-16T22:20:06.742Z,11.00
2018-04-16T22:22:34.990Z,11.00
2018-04-16T22:25:02.467Z,10.90
2018-04-16T22:27:29.985Z,10.90
2018-04-16T22:29:57.455Z,10.90
2018-04-16T22:32:24.932Z,10.90
2018-04-16T22:34:52.405Z,10.80
2018-04-16T22:37:20.670Z,10.80
2018-04-16T22:39:48.140Z,10.80
2018-04-16T22:44:50.185Z,10.70
2018-04-16T22:47:19.501Z,10.80
2018-04-16T22:49:46.979Z,10.70
2018-04-16T22:52:15.224Z,10.70
2018-04-16T22:54:44.209Z,10.70
2018-04-16T22:57:11.697Z,10.70
2018-04-16T22:59:39.944Z,10.70
2018-04-16T23:02:07.431Z,10.70
2018-04-16T23:04:35.712Z,10.70
2018-04-16T23:07:03.173Z,10.60
2018-04-16T23:09:30.670Z,10.60
2018-04-16T23:11:58.145Z,10.60
2018-04-16T23:14:25.633Z,10.50
2018-04-16T23:16:53.113Z,10.50
2018-04-16T23:19:20.608Z,10.40
2018-04-16T23:21:48.091Z,10.40
2018-04-16T23:24:16.368Z,10.30
2018-04-16T23:26:44.627Z,10.30
2018-04-16T23:29:12.123Z,10.30
2018-04-16T23:31:39.611Z,10.20
2018-04-16T23:34:07.079Z,10.20
2018-04-16T23:36:34.570Z,10.30
2018-04-16T23:39:02.817Z,10.10
2018-04-16T23:41:30.301Z,10.10
2018-04-16T23:43:58.563Z,10.10
2018-04-16T23:46:26.812Z,10.00
2018-04-16T23:48:54.281Z,10.00
2018-04-16T23:51:21.774Z,10.00
2018-04-16T23:53:49.241Z,9.90
2018-04-16T23:56:16.722Z,9.90
2018-04-16T23:58:44.193Z,9.80
